09:47
Airports
History
Links
Donate
Help keep this website running!
PayPal
Bitcoin
This page is community maintained. The information is intended for PC simulator navigation or reference.
Always use approved charts for navigation.
CZFM
FORT MCPHERSON
FORT MCPHERSON (CZFM)
Fort McPherson, Northwest Territories, Canada
4
Lat/Lng:67° 24' 28.01" N / 134° 51' 36.99" W
67.40778 / -134.860275
Elevation:116'ft / 35mMSL
ID / ICAO:CZFM
Runways:1
Longest:11-29
Gravel 1,046m / 3,432ft
METAR19:00 GMT 2017-10-22
Altimeter: 29.62
Visibility: 35.0 statute miles
Wind: 2 knots (from 060°)
Temp: -7°c / 19°f
Humidity: 85.6%

METAR: CZFM 221900Z 06002KT 35SM BKN018 M07/M09 A2962 RMK SC7 -7.3/-11.6/TR/MUCH LOOSE LAST OBS/NEXT 231300Z SLP037

(Powered by phpweather)
Airport Radio Frequencies
MANDATORY FREQ: 122.1
Nearby VORs <50NM
Nearby NDBs
Runway 11 / 29
Dimensions:1046.1 x 30.5m 3432' x 100'ft
Surface:Gravel
Edge Lights:Low intensity
Runway 11 [A]Runway 29 [B]
Heading:140°TH 320°TH
Lat:
Lng:
67° 24' 41.01"N
134° 52' 5.02"W
67° 24' 15"N
134° 51' 8.96"W
User Notes and Comments
67° 24' 28.01" N / 134° 51' 36.99" W
Distance To
Airport ID:
Nearby Airports
(C) Midway 16.5 NM
CBA4 SW 225°
4 Aklavik 56.5 NM
CYKD N 356°
(U) INUVIK MIKE ZUBKO 71.5 NM
CYEV ( WX ) NNE 30°
4 Eagle Plains 78.6 NM
AJ2 SW 216°
4 Old Crow 132.2 NM
CYOC ( WX ) W 274°
4 TUKTOYAKTUK 147.5 NM
CYUB ( WX ) NNE 18°
4 Oglivie River 149.5 NM
CFS4 SW 216°
VFR Chart
Flight Planning at SkyVector.com